James, South Dakota
Current Conditions -  °F | °C
As of 5:53 PM on Friday 24 Oct 2014 (Local Time) from KABR Reporting Station
Clear Clear  
Wind Chill: 73°   Ceiling: Unl
Heat Index: 73°   Visibility: 10mi
Dew Point: 40°   Wind: 9mph
Humidity: 30%   Direction: 290°WNW
Pressure: 29.9"   Gusts: NA
Location:  45.4583°N, 98.1109°W
Report Text: KABR 242253Z AUTO 29008KT 10SM CLR 23/04 A2990 RMK AO2 SLP128 T02280044
Loading
Personal Weather Stations






























Interactive Weather Map
Tropical Storm Tracking
New forecast layout! Learn more

10-Day Weather Forecast

Advertisements
Track Severe Weather on mobile